createdAt,value
2023-03-26T00:15:42.441Z,7.19
2023-03-26T00:45:42.498Z,7.38
2023-03-26T01:15:42.485Z,7.31
2023-03-26T01:45:42.452Z,7.38
2023-03-26T02:15:42.461Z,7.31
2023-03-26T02:45:42.488Z,6.94
2023-03-26T03:15:42.467Z,6.38
2023-03-26T03:45:42.482Z,6.06
2023-03-26T04:15:42.520Z,5.94
2023-03-26T04:45:42.499Z,5.81
2023-03-26T05:15:42.481Z,5.94
2023-03-26T05:45:42.508Z,6.19
2023-03-26T06:15:42.514Z,6.63
2023-03-26T06:45:42.491Z,7.19
2023-03-26T07:15:42.492Z,7.69
2023-03-26T07:45:42.555Z,7.88
2023-03-26T08:15:42.510Z,8.25
2023-03-26T08:45:42.502Z,8.69
2023-03-26T09:15:42.532Z,7.81
2023-03-26T09:45:42.537Z,7.5
2023-03-26T10:15:42.543Z,7.63
2023-03-26T10:45:42.598Z,7.19
2023-03-26T11:15:42.569Z,7.13
2023-03-26T11:45:42.576Z,7.5
2023-03-26T12:15:42.546Z,7.13
2023-03-26T12:45:42.617Z,8
2023-03-26T13:15:42.574Z,10.69
2023-03-26T13:45:42.592Z,10.56
2023-03-26T14:15:42.574Z,9.44
2023-03-26T14:45:42.586Z,10.5
2023-03-26T15:15:42.573Z,11.25
2023-03-26T15:45:42.584Z,11.69
2023-03-26T16:15:42.637Z,11.69
2023-03-26T16:45:42.587Z,11.13
2023-03-26T17:15:42.600Z,10.63
2023-03-26T17:45:42.634Z,10.19
2023-03-26T18:15:44.827Z,9.81
2023-03-26T18:45:42.622Z,8.88
2023-03-26T19:15:42.602Z,8.06
2023-03-26T19:45:59.395Z,7.5
2023-03-26T20:15:42.664Z,7.38
2023-03-26T20:45:42.617Z,7.13
2023-03-26T21:15:42.609Z,7
2023-03-26T21:45:42.628Z,6.88
2023-03-26T22:15:42.625Z,7
2023-03-26T22:45:42.620Z,6.94
2023-03-26T23:15:42.638Z,6.69
2023-03-26T23:45:42.700Z,6
